sensor_id;sensor_type;location;lat;lon;timestamp;temperature;humidity
17442;DHT22;8838;50.144;8.176;2023-11-18T00:00:38;2.80;99.90
17442;DHT22;8838;50.144;8.176;2023-11-18T00:03:06;2.70;99.90
17442;DHT22;8838;50.144;8.176;2023-11-18T00:05:33;2.60;99.90
17442;DHT22;8838;50.144;8.176;2023-11-18T00:08:00;2.60;99.90
17442;DHT22;8838;50.144;8.176;2023-11-18T00:10:27;2.60;99.90
17442;DHT22;8838;50.144;8.176;2023-11-18T00:12:56;2.50;99.90
17442;DHT22;8838;50.144;8.176;2023-11-18T00:15:23;2.40;99.90
17442;DHT22;8838;50.144;8.176;2023-11-18T00:17:49;2.30;99.90
17442;DHT22;8838;50.144;8.176;2023-11-18T00:20:16;2.30;99.90
17442;DHT22;8838;50.144;8.176;2023-11-18T00:22:44;2.20;99.90
17442;DHT22;8838;50.144;8.176;2023-11-18T00:25:11;2.10;99.90
17442;DHT22;8838;50.144;8.176;2023-11-18T00:27:39;2.10;99.90
17442;DHT22;8838;50.144;8.176;2023-11-18T00:30:09;2.10;99.90
17442;DHT22;8838;50.144;8.176;2023-11-18T00:32:36;2.20;99.90
17442;DHT22;8838;50.144;8.176;2023-11-18T00:35:04;2.10;99.90
17442;DHT22;8838;50.144;8.176;2023-11-18T00:37:32;2.20;99.90
17442;DHT22;8838;50.144;8.176;2023-11-18T00:39:59;2.30;99.90
17442;DHT22;8838;50.144;8.176;2023-11-18T00:42:25;2.30;99.90
17442;DHT22;8838;50.144;8.176;2023-11-18T00:44:52;2.30;99.90
17442;DHT22;8838;50.144;8.176;2023-11-18T00:47:22;2.30;99.90
17442;DHT22;8838;50.144;8.176;2023-11-18T00:49:49;2.40;99.90
17442;DHT22;8838;50.144;8.176;2023-11-18T00:52:17;2.30;99.90
17442;DHT22;8838;50.144;8.176;2023-11-18T00:54:45;2.20;99.90
17442;DHT22;8838;50.144;8.176;2023-11-18T00:57:11;2.30;99.90
17442;DHT22;8838;50.144;8.176;2023-11-18T00:59:41;2.40;99.90
17442;DHT22;8838;50.144;8.176;2023-11-18T01:02:08;2.40;99.90
17442;DHT22;8838;50.144;8.176;2023-11-18T01:04:36;2.40;99.90
17442;DHT22;8838;50.144;8.176;2023-11-18T01:07:03;2.40;99.90
17442;DHT22;8838;50.144;8.176;2023-11-18T01:09:30;2.40;99.90
17442;DHT22;8838;50.144;8.176;2023-11-18T01:12:02;2.40;99.90
17442;DHT22;8838;50.144;8.176;2023-11-18T01:14:29;2.30;99.90
17442;DHT22;8838;50.144;8.176;2023-11-18T01:16:56;2.20;99.90
17442;DHT22;8838;50.144;8.176;2023-11-18T01:19:23;2.20;99.90
17442;DHT22;8838;50.144;8.176;2023-11-18T01:21:51;2.10;99.90
17442;DHT22;8838;50.144;8.176;2023-11-18T01:24:18;2.20;99.90
17442;DHT22;8838;50.144;8.176;2023-11-18T01:26:45;2.10;99.90
17442;DHT22;8838;50.144;8.176;2023-11-18T01:29:12;2.10;99.90
17442;DHT22;8838;50.144;8.176;2023-11-18T01:31:39;2.20;99.90
17442;DHT22;8838;50.144;8.176;2023-11-18T01:34:06;2.20;99.90
17442;DHT22;8838;50.144;8.176;2023-11-18T01:36:34;2.10;99.90
17442;DHT22;8838;50.144;8.176;2023-11-18T01:39:02;2.00;99.90
17442;DHT22;8838;50.144;8.176;2023-11-18T01:41:30;2.00;99.90
17442;DHT22;8838;50.144;8.176;2023-11-18T01:43:58;1.90;99.90
17442;DHT22;8838;50.144;8.176;2023-11-18T01:46:25;1.70;99.90
17442;DHT22;8838;50.144;8.176;2023-11-18T01:48:55;1.50;99.90
17442;DHT22;8838;50.144;8.176;2023-11-18T01:51:24;1.20;99.90
17442;DHT22;8838;50.144;8.176;2023-11-18T01:53:51;1.20;99.90
17442;DHT22;8838;50.144;8.176;2023-11-18T01:56:19;1.30;99.90
17442;DHT22;8838;50.144;8.176;2023-11-18T01:58:50;1.40;99.90
17442;DHT22;8838;50.144;8.176;2023-11-18T02:01:18;1.50;99.90
17442;DHT22;8838;50.144;8.176;2023-11-18T02:03:45;1.50;99.90
17442;DHT22;8838;50.144;8.176;2023-11-18T02:06:13;1.50;99.90
17442;DHT22;8838;50.144;8.176;2023-11-18T02:08:41;1.50;99.90
17442;DHT22;8838;50.144;8.176;2023-11-18T02:11:14;1.50;99.90
17442;DHT22;8838;50.144;8.176;2023-11-18T02:13:48;1.60;99.90
17442;DHT22;8838;50.144;8.176;2023-11-18T02:16:16;1.60;99.90
17442;DHT22;8838;50.144;8.176;2023-11-18T02:18:43;1.70;99.90
17442;DHT22;8838;50.144;8.176;2023-11-18T02:21:11;1.80;99.90
17442;DHT22;8838;50.144;8.176;2023-11-18T02:23:40;1.80;99.90
17442;DHT22;8838;50.144;8.176;2023-11-18T02:26:09;1.80;99.90
17442;DHT22;8838;50.144;8.176;2023-11-18T02:28:35;1.70;99.90
17442;DHT22;8838;50.144;8.176;2023-11-18T02:31:10;1.80;99.90
17442;DHT22;8838;50.144;8.176;2023-11-18T02:33:46;1.80;99.90
17442;DHT22;8838;50.144;8.176;2023-11-18T02:36:23;1.80;99.90
17442;DHT22;8838;50.144;8.176;2023-11-18T02:38:57;1.70;99.90
17442;DHT22;8838;50.144;8.176;2023-11-18T02:41:27;1.70;99.90
17442;DHT22;8838;50.144;8.176;2023-11-18T02:43:55;1.80;99.90
17442;DHT22;8838;50.144;8.176;2023-11-18T02:46:24;1.70;99.90
17442;DHT22;8838;50.144;8.176;2023-11-18T02:48:53;1.70;99.90
17442;DHT22;8838;50.144;8.176;2023-11-18T02:51:20;1.70;99.90
17442;DHT22;8838;50.144;8.176;2023-11-18T02:53:48;1.70;99.90
17442;DHT22;8838;50.144;8.176;2023-11-18T02:56:14;1.60;99.90
17442;DHT22;8838;50.144;8.176;2023-11-18T02:58:43;1.60;99.90
17442;DHT22;8838;50.144;8.176;2023-11-18T03:01:10;1.60;99.90
17442;DHT22;8838;50.144;8.176;2023-11-18T03:03:36;1.40;99.90
17442;DHT22;8838;50.144;8.176;2023-11-18T03:06:04;1.40;99.90
17442;DHT22;8838;50.144;8.176;2023-11-18T03:08:31;1.50;99.90
17442;DHT22;8838;50.144;8.176;2023-11-18T03:10:58;1.30;99.90
17442;DHT22;8838;50.144;8.176;2023-11-18T03:13:25;1.20;99.90
17442;DHT22;8838;50.144;8.176;2023-11-18T03:15:53;1.10;99.90
17442;DHT22;8838;50.144;8.176;2023-11-18T03:18:20;1.20;99.90
17442;DHT22;8838;50.144;8.176;2023-11-18T03:20:46;1.20;99.90
17442;DHT22;8838;50.144;8.176;2023-11-18T03:23:14;1.20;99.90
17442;DHT22;8838;50.144;8.176;2023-11-18T03:25:41;1.20;99.90
17442;DHT22;8838;50.144;8.176;2023-11-18T03:28:09;1.20;99.90
17442;DHT22;8838;50.144;8.176;2023-11-18T03:30:36;1.10;99.90
17442;DHT22;8838;50.144;8.176;2023-11-18T03:33:04;1.00;99.90
17442;DHT22;8838;50.144;8.176;2023-11-18T03:35:36;1.00;99.90
17442;DHT22;8838;50.144;8.176;2023-11-18T03:38:03;1.10;99.90
17442;DHT22;8838;50.144;8.176;2023-11-18T03:40:29;1.20;99.90
17442;DHT22;8838;50.144;8.176;2023-11-18T03:42:56;1.30;99.90
17442;DHT22;8838;50.144;8.176;2023-11-18T03:45:24;1.40;99.90
17442;DHT22;8838;50.144;8.176;2023-11-18T03:47:50;1.40;99.90
17442;DHT22;8838;50.144;8.176;2023-11-18T03:50:18;1.40;99.90
17442;DHT22;8838;50.144;8.176;2023-11-18T03:52:45;1.50;99.90
17442;DHT22;8838;50.144;8.176;2023-11-18T03:55:12;1.60;99.90
17442;DHT22;8838;50.144;8.176;2023-11-18T03:57:39;1.60;99.90
17442;DHT22;8838;50.144;8.176;2023-11-18T04:00:07;1.70;99.90
17442;DHT22;8838;50.144;8.176;2023-11-18T04:02:37;1.70;99.90
17442;DHT22;8838;50.144;8.176;2023-11-18T04:05:06;1.70;99.90
17442;DHT22;8838;50.144;8.176;2023-11-18T04:07:35;1.70;99.90
17442;DHT22;8838;50.144;8.176;2023-11-18T04:10:01;1.80;99.90
17442;DHT22;8838;50.144;8.176;2023-11-18T04:12:31;1.80;99.90
17442;DHT22;8838;50.144;8.176;2023-11-18T04:14:58;1.80;99.90
17442;DHT22;8838;50.144;8.176;2023-11-18T04:17:24;1.80;99.90
17442;DHT22;8838;50.144;8.176;2023-11-18T04:19:53;1.80;99.90
17442;DHT22;8838;50.144;8.176;2023-11-18T04:22:21;1.80;99.90
17442;DHT22;8838;50.144;8.176;2023-11-18T04:24:49;1.80;99.90
17442;DHT22;8838;50.144;8.176;2023-11-18T04:27:16;1.80;99.90
17442;DHT22;8838;50.144;8.176;2023-11-18T04:29:43;1.90;99.90
17442;DHT22;8838;50.144;8.176;2023-11-18T04:32:10;1.80;99.90
17442;DHT22;8838;50.144;8.176;2023-11-18T04:34:39;1.80;99.90
17442;DHT22;8838;50.144;8.176;2023-11-18T04:37:08;1.90;99.90
17442;DHT22;8838;50.144;8.176;2023-11-18T04:39:35;1.80;99.90
17442;DHT22;8838;50.144;8.176;2023-11-18T04:42:04;1.80;99.90
17442;DHT22;8838;50.144;8.176;2023-11-18T04:44:31;1.80;99.90
17442;DHT22;8838;50.144;8.176;2023-11-18T04:46:57;1.80;99.90
17442;DHT22;8838;50.144;8.176;2023-11-18T04:49:25;1.80;99.90
17442;DHT22;8838;50.144;8.176;2023-11-18T04:51:51;1.90;99.90
17442;DHT22;8838;50.144;8.176;2023-11-18T04:54:18;1.90;99.90
17442;DHT22;8838;50.144;8.176;2023-11-18T04:56:45;2.00;99.90
17442;DHT22;8838;50.144;8.176;2023-11-18T04:59:14;2.10;99.90
17442;DHT22;8838;50.144;8.176;2023-11-18T05:01:43;2.20;99.90
17442;DHT22;8838;50.144;8.176;2023-11-18T05:04:10;2.30;99.90
17442;DHT22;8838;50.144;8.176;2023-11-18T05:06:36;2.30;99.90
17442;DHT22;8838;50.144;8.176;2023-11-18T05:09:03;2.30;99.90
17442;DHT22;8838;50.144;8.176;2023-11-18T05:11:33;2.30;99.90
17442;DHT22;8838;50.144;8.176;2023-11-18T05:13:59;2.40;99.90
17442;DHT22;8838;50.144;8.176;2023-11-18T05:16:29;2.30;99.90
17442;DHT22;8838;50.144;8.176;2023-11-18T05:18:56;2.30;99.90
17442;DHT22;8838;50.144;8.176;2023-11-18T05:21:23;2.30;99.90
17442;DHT22;8838;50.144;8.176;2023-11-18T05:23:50;2.30;99.90
17442;DHT22;8838;50.144;8.176;2023-11-18T05:26:17;2.30;99.90
17442;DHT22;8838;50.144;8.176;2023-11-18T05:28:43;2.40;99.90
17442;DHT22;8838;50.144;8.176;2023-11-18T05:31:10;2.60;99.90
17442;DHT22;8838;50.144;8.176;2023-11-18T05:33:38;2.70;99.90
17442;DHT22;8838;50.144;8.176;2023-11-18T05:36:07;2.80;99.90
17442;DHT22;8838;50.144;8.176;2023-11-18T05:38:33;2.80;99.90
17442;DHT22;8838;50.144;8.176;2023-11-18T05:41:01;2.90;99.90
17442;DHT22;8838;50.144;8.176;2023-11-18T05:43:30;2.90;99.90
17442;DHT22;8838;50.144;8.176;2023-11-18T05:46:02;3.00;99.90
17442;DHT22;8838;50.144;8.176;2023-11-18T05:48:48;3.00;99.90
17442;DHT22;8838;50.144;8.176;2023-11-18T05:51:19;3.10;99.90
17442;DHT22;8838;50.144;8.176;2023-11-18T05:53:47;3.10;99.90
17442;DHT22;8838;50.144;8.176;2023-11-18T05:56:14;3.10;99.90
17442;DHT22;8838;50.144;8.176;2023-11-18T05:58:42;3.20;99.90
17442;DHT22;8838;50.144;8.176;2023-11-18T06:01:09;3.30;99.90
17442;DHT22;8838;50.144;8.176;2023-11-18T06:03:37;3.30;99.90
17442;DHT22;8838;50.144;8.176;2023-11-18T06:06:07;3.30;99.90
17442;DHT22;8838;50.144;8.176;2023-11-18T06:08:35;3.40;99.90
17442;DHT22;8838;50.144;8.176;2023-11-18T06:11:02;3.40;99.90
17442;DHT22;8838;50.144;8.176;2023-11-18T06:13:38;3.50;99.90
17442;DHT22;8838;50.144;8.176;2023-11-18T06:16:08;3.50;99.90
17442;DHT22;8838;50.144;8.176;2023-11-18T06:18:39;3.60;99.90
17442;DHT22;8838;50.144;8.176;2023-11-18T06:21:09;3.60;99.90
17442;DHT22;8838;50.144;8.176;2023-11-18T06:23:36;3.60;99.90
17442;DHT22;8838;50.144;8.176;2023-11-18T06:26:03;3.60;99.90
17442;DHT22;8838;50.144;8.176;2023-11-18T06:28:30;3.70;99.90
17442;DHT22;8838;50.144;8.176;2023-11-18T06:30:58;3.70;99.90
17442;DHT22;8838;50.144;8.176;2023-11-18T06:33:27;3.70;99.90
17442;DHT22;8838;50.144;8.176;2023-11-18T06:35:54;3.70;99.90
17442;DHT22;8838;50.144;8.176;2023-11-18T06:38:23;3.70;99.90
17442;DHT22;8838;50.144;8.176;2023-11-18T06:40:50;3.80;99.90
17442;DHT22;8838;50.144;8.176;2023-11-18T06:43:18;3.70;99.90
17442;DHT22;8838;50.144;8.176;2023-11-18T06:45:45;3.70;99.90
17442;DHT22;8838;50.144;8.176;2023-11-18T06:48:17;3.70;99.90
17442;DHT22;8838;50.144;8.176;2023-11-18T06:50:46;3.80;99.90
17442;DHT22;8838;50.144;8.176;2023-11-18T06:53:13;3.90;99.90
17442;DHT22;8838;50.144;8.176;2023-11-18T06:55:42;3.90;99.90
17442;DHT22;8838;50.144;8.176;2023-11-18T06:58:09;3.90;99.90
17442;DHT22;8838;50.144;8.176;2023-11-18T07:00:37;3.90;99.90
17442;DHT22;8838;50.144;8.176;2023-11-18T07:03:04;4.00;99.90
17442;DHT22;8838;50.144;8.176;2023-11-18T07:05:31;4.00;99.90
17442;DHT22;8838;50.144;8.176;2023-11-18T07:07:58;4.00;99.90
17442;DHT22;8838;50.144;8.176;2023-11-18T07:10:25;4.10;99.90
17442;DHT22;8838;50.144;8.176;2023-11-18T07:12:54;4.10;99.90
17442;DHT22;8838;50.144;8.176;2023-11-18T07:15:21;4.20;99.90
17442;DHT22;8838;50.144;8.176;2023-11-18T07:17:48;4.10;99.90
17442;DHT22;8838;50.144;8.176;2023-11-18T07:20:15;4.10;99.90
17442;DHT22;8838;50.144;8.176;2023-11-18T07:22:42;4.10;99.90
17442;DHT22;8838;50.144;8.176;2023-11-18T07:25:09;4.20;99.90
17442;DHT22;8838;50.144;8.176;2023-11-18T07:27:36;4.20;99.90
17442;DHT22;8838;50.144;8.176;2023-11-18T07:30:06;4.20;99.90
17442;DHT22;8838;50.144;8.176;2023-11-18T07:32:32;4.10;99.90
17442;DHT22;8838;50.144;8.176;2023-11-18T07:35:00;4.20;99.90
17442;DHT22;8838;50.144;8.176;2023-11-18T07:37:26;4.20;99.90
17442;DHT22;8838;50.144;8.176;2023-11-18T07:39:53;4.30;99.90
17442;DHT22;8838;50.144;8.176;2023-11-18T07:42:20;4.30;99.90
17442;DHT22;8838;50.144;8.176;2023-11-18T07:44:47;4.30;99.90
17442;DHT22;8838;50.144;8.176;2023-11-18T07:47:15;4.30;99.90
17442;DHT22;8838;50.144;8.176;2023-11-18T07:49:42;4.40;99.90
17442;DHT22;8838;50.144;8.176;2023-11-18T07:52:11;4.40;99.90
17442;DHT22;8838;50.144;8.176;2023-11-18T07:54:37;4.40;99.90
17442;DHT22;8838;50.144;8.176;2023-11-18T07:57:04;4.40;99.90
17442;DHT22;8838;50.144;8.176;2023-11-18T07:59:35;4.40;99.90
17442;DHT22;8838;50.144;8.176;2023-11-18T08:02:02;4.50;99.90
17442;DHT22;8838;50.144;8.176;2023-11-18T08:04:35;4.50;99.90
17442;DHT22;8838;50.144;8.176;2023-11-18T08:07:02;4.50;99.90
17442;DHT22;8838;50.144;8.176;2023-11-18T08:09:30;4.50;99.90
17442;DHT22;8838;50.144;8.176;2023-11-18T08:11:58;4.50;99.90
17442;DHT22;8838;50.144;8.176;2023-11-18T08:14:25;4.50;99.90
17442;DHT22;8838;50.144;8.176;2023-11-18T08:16:52;4.50;99.90
17442;DHT22;8838;50.144;8.176;2023-11-18T08:19:21;4.50;99.90
17442;DHT22;8838;50.144;8.176;2023-11-18T08:21:50;4.50;99.90
17442;DHT22;8838;50.144;8.176;2023-11-18T08:24:17;4.60;99.90
17442;DHT22;8838;50.144;8.176;2023-11-18T08:26:46;4.60;99.90
17442;DHT22;8838;50.144;8.176;2023-11-18T08:29:13;4.60;99.90
17442;DHT22;8838;50.144;8.176;2023-11-18T08:31:39;4.70;99.90
17442;DHT22;8838;50.144;8.176;2023-11-18T08:34:06;4.70;99.90
17442;DHT22;8838;50.144;8.176;2023-11-18T08:36:35;4.70;99.90
17442;DHT22;8838;50.144;8.176;2023-11-18T08:39:04;4.70;99.90
17442;DHT22;8838;50.144;8.176;2023-11-18T08:41:31;4.80;99.90
17442;DHT22;8838;50.144;8.176;2023-11-18T08:43:58;4.80;99.90
17442;DHT22;8838;50.144;8.176;2023-11-18T08:46:25;4.70;99.90
17442;DHT22;8838;50.144;8.176;2023-11-18T08:48:52;4.70;99.90
17442;DHT22;8838;50.144;8.176;2023-11-18T08:51:21;4.70;99.90
17442;DHT22;8838;50.144;8.176;2023-11-18T08:53:51;4.70;99.90
17442;DHT22;8838;50.144;8.176;2023-11-18T08:56:21;4.70;99.90
17442;DHT22;8838;50.144;8.176;2023-11-18T08:59:00;4.70;99.90
17442;DHT22;8838;50.144;8.176;2023-11-18T09:01:26;4.70;99.90
17442;DHT22;8838;50.144;8.176;2023-11-18T09:03:53;4.70;99.90
17442;DHT22;8838;50.144;8.176;2023-11-18T09:06:22;4.70;99.90
17442;DHT22;8838;50.144;8.176;2023-11-18T09:08:53;4.80;99.90
17442;DHT22;8838;50.144;8.176;2023-11-18T09:11:24;4.80;99.90
17442;DHT22;8838;50.144;8.176;2023-11-18T09:13:54;4.80;99.90
17442;DHT22;8838;50.144;8.176;2023-11-18T09:16:25;4.80;99.90
17442;DHT22;8838;50.144;8.176;2023-11-18T09:18:56;4.70;99.90
17442;DHT22;8838;50.144;8.176;2023-11-18T09:21:24;4.70;99.90
17442;DHT22;8838;50.144;8.176;2023-11-18T09:23:54;4.70;99.90
17442;DHT22;8838;50.144;8.176;2023-11-18T09:26:23;4.80;99.90
17442;DHT22;8838;50.144;8.176;2023-11-18T09:28:51;4.80;99.90
17442;DHT22;8838;50.144;8.176;2023-11-18T09:31:18;4.80;99.90
17442;DHT22;8838;50.144;8.176;2023-11-18T09:33:47;4.90;99.90
17442;DHT22;8838;50.144;8.176;2023-11-18T09:36:18;5.00;99.90
17442;DHT22;8838;50.144;8.176;2023-11-18T09:38:46;5.00;99.90
17442;DHT22;8838;50.144;8.176;2023-11-18T09:41:13;5.00;99.90
17442;DHT22;8838;50.144;8.176;2023-11-18T09:43:43;5.10;99.90
17442;DHT22;8838;50.144;8.176;2023-11-18T09:46:12;5.10;99.90
17442;DHT22;8838;50.144;8.176;2023-11-18T09:48:43;5.10;99.90
17442;DHT22;8838;50.144;8.176;2023-11-18T09:51:18;5.10;99.90
17442;DHT22;8838;50.144;8.176;2023-11-18T09:53:49;5.00;99.90
17442;DHT22;8838;50.144;8.176;2023-11-18T09:56:19;5.00;99.90
17442;DHT22;8838;50.144;8.176;2023-11-18T09:59:01;5.00;99.90
17442;DHT22;8838;50.144;8.176;2023-11-18T10:01:34;5.00;99.90
17442;DHT22;8838;50.144;8.176;2023-11-18T10:04:04;4.90;99.90
17442;DHT22;8838;50.144;8.176;2023-11-18T10:06:34;4.90;99.90
17442;DHT22;8838;50.144;8.176;2023-11-18T10:09:05;4.90;99.90
17442;DHT22;8838;50.144;8.176;2023-11-18T10:11:40;4.80;99.90
17442;DHT22;8838;50.144;8.176;2023-11-18T10:14:09;4.80;99.90
17442;DHT22;8838;50.144;8.176;2023-11-18T10:16:36;4.90;99.90
17442;DHT22;8838;50.144;8.176;2023-11-18T10:19:04;4.90;99.90
17442;DHT22;8838;50.144;8.176;2023-11-18T10:21:35;4.80;99.90
17442;DHT22;8838;50.144;8.176;2023-11-18T10:24:05;4.90;99.90
17442;DHT22;8838;50.144;8.176;2023-11-18T10:26:40;5.00;99.90
17442;DHT22;8838;50.144;8.176;2023-11-18T10:29:10;5.00;99.90
17442;DHT22;8838;50.144;8.176;2023-11-18T10:31:38;5.00;99.90
17442;DHT22;8838;50.144;8.176;2023-11-18T10:34:11;5.00;99.90
17442;DHT22;8838;50.144;8.176;2023-11-18T10:36:41;5.10;99.90
17442;DHT22;8838;50.144;8.176;2023-11-18T10:39:11;5.10;99.90
17442;DHT22;8838;50.144;8.176;2023-11-18T10:41:43;5.00;99.90
17442;DHT22;8838;50.144;8.176;2023-11-18T10:44:14;5.00;99.90
17442;DHT22;8838;50.144;8.176;2023-11-18T10:46:50;5.00;99.90
17442;DHT22;8838;50.144;8.176;2023-11-18T10:49:18;5.00;99.90
17442;DHT22;8838;50.144;8.176;2023-11-18T10:51:47;5.00;99.90
17442;DHT22;8838;50.144;8.176;2023-11-18T10:54:14;5.10;99.90
17442;DHT22;8838;50.144;8.176;2023-11-18T10:56:47;5.10;99.90
17442;DHT22;8838;50.144;8.176;2023-11-18T10:59:17;5.10;99.90
17442;DHT22;8838;50.144;8.176;2023-11-18T11:01:44;5.00;99.90
17442;DHT22;8838;50.144;8.176;2023-11-18T11:04:15;5.00;99.90
17442;DHT22;8838;50.144;8.176;2023-11-18T11:06:43;4.90;99.90
17442;DHT22;8838;50.144;8.176;2023-11-18T11:09:17;5.00;99.90
17442;DHT22;8838;50.144;8.176;2023-11-18T11:11:48;5.00;99.90
17442;DHT22;8838;50.144;8.176;2023-11-18T11:14:20;5.00;99.90
17442;DHT22;8838;50.144;8.176;2023-11-18T11:16:52;4.90;99.90
17442;DHT22;8838;50.144;8.176;2023-11-18T11:19:24;4.90;99.90
17442;DHT22;8838;50.144;8.176;2023-11-18T11:22:00;4.80;99.90
17442;DHT22;8838;50.144;8.176;2023-11-18T11:24:37;4.80;99.90
17442;DHT22;8838;50.144;8.176;2023-11-18T11:27:13;4.80;99.90
17442;DHT22;8838;50.144;8.176;2023-11-18T11:29:53;4.80;99.90
17442;DHT22;8838;50.144;8.176;2023-11-18T11:32:26;4.90;99.90
17442;DHT22;8838;50.144;8.176;2023-11-18T11:34:57;4.80;99.90
17442;DHT22;8838;50.144;8.176;2023-11-18T11:37:32;4.80;99.90
17442;DHT22;8838;50.144;8.176;2023-11-18T11:40:00;4.90;99.90
17442;DHT22;8838;50.144;8.176;2023-11-18T11:42:31;4.90;99.90
17442;DHT22;8838;50.144;8.176;2023-11-18T11:45:01;4.90;99.90
17442;DHT22;8838;50.144;8.176;2023-11-18T11:47:29;4.90;99.90
17442;DHT22;8838;50.144;8.176;2023-11-18T11:50:09;4.90;99.90
17442;DHT22;8838;50.144;8.176;2023-11-18T11:52:40;4.90;99.90
17442;DHT22;8838;50.144;8.176;2023-11-18T11:55:22;4.90;99.90
17442;DHT22;8838;50.144;8.176;2023-11-18T11:57:53;4.90;99.90
17442;DHT22;8838;50.144;8.176;2023-11-18T12:00:25;4.90;99.90
17442;DHT22;8838;50.144;8.176;2023-11-18T12:03:01;4.90;99.90
17442;DHT22;8838;50.144;8.176;2023-11-18T12:05:30;4.90;99.90
17442;DHT22;8838;50.144;8.176;2023-11-18T12:07:59;4.90;99.90
17442;DHT22;8838;50.144;8.176;2023-11-18T12:10:30;5.00;99.90
17442;DHT22;8838;50.144;8.176;2023-11-18T12:13:07;5.00;99.90
17442;DHT22;8838;50.144;8.176;2023-11-18T12:15:49;5.00;99.90
17442;DHT22;8838;50.144;8.176;2023-11-18T12:18:20;4.90;99.90
17442;DHT22;8838;50.144;8.176;2023-11-18T12:20:47;5.00;99.90
17442;DHT22;8838;50.144;8.176;2023-11-18T12:23:19;5.00;99.90
17442;DHT22;8838;50.144;8.176;2023-11-18T12:25:48;5.00;99.90
17442;DHT22;8838;50.144;8.176;2023-11-18T12:28:21;5.10;99.90
17442;DHT22;8838;50.144;8.176;2023-11-18T12:30:54;5.10;99.90
17442;DHT22;8838;50.144;8.176;2023-11-18T12:34:01;5.10;99.90
17442;DHT22;8838;50.144;8.176;2023-11-18T12:37:03;5.20;99.90
17442;DHT22;8838;50.144;8.176;2023-11-18T12:43:02;5.20;99.90
17442;DHT22;8838;50.144;8.176;2023-11-18T12:48:49;5.20;99.90
17442;DHT22;8838;50.144;8.176;2023-11-18T12:51:17;5.30;99.90
17442;DHT22;8838;50.144;8.176;2023-11-18T12:53:47;5.30;99.90
17442;DHT22;8838;50.144;8.176;2023-11-18T12:56:17;5.30;99.90
17442;DHT22;8838;50.144;8.176;2023-11-18T12:58:45;5.30;99.90
17442;DHT22;8838;50.144;8.176;2023-11-18T13:01:12;5.30;99.90
17442;DHT22;8838;50.144;8.176;2023-11-18T13:03:40;5.30;99.90
17442;DHT22;8838;50.144;8.176;2023-11-18T13:06:09;5.30;99.90
17442;DHT22;8838;50.144;8.176;2023-11-18T13:08:37;5.30;99.90
17442;DHT22;8838;50.144;8.176;2023-11-18T13:11:07;5.20;99.90
17442;DHT22;8838;50.144;8.176;2023-11-18T13:13:41;5.20;99.90
17442;DHT22;8838;50.144;8.176;2023-11-18T13:16:08;5.20;99.90
17442;DHT22;8838;50.144;8.176;2023-11-18T13:18:43;5.20;99.90
17442;DHT22;8838;50.144;8.176;2023-11-18T13:21:18;5.20;99.90
17442;DHT22;8838;50.144;8.176;2023-11-18T13:23:46;5.30;99.90
17442;DHT22;8838;50.144;8.176;2023-11-18T13:26:14;5.30;99.90
17442;DHT22;8838;50.144;8.176;2023-11-18T13:28:40;5.20;99.90
17442;DHT22;8838;50.144;8.176;2023-11-18T13:31:09;5.20;99.90
17442;DHT22;8838;50.144;8.176;2023-11-18T13:33:38;5.20;99.90
17442;DHT22;8838;50.144;8.176;2023-11-18T13:36:05;5.20;99.90
17442;DHT22;8838;50.144;8.176;2023-11-18T13:38:40;5.20;99.90
17442;DHT22;8838;50.144;8.176;2023-11-18T13:41:07;5.20;99.90
17442;DHT22;8838;50.144;8.176;2023-11-18T13:43:44;5.30;99.90
17442;DHT22;8838;50.144;8.176;2023-11-18T13:46:12;5.30;99.90
17442;DHT22;8838;50.144;8.176;2023-11-18T13:48:40;5.40;99.90
17442;DHT22;8838;50.144;8.176;2023-11-18T13:51:08;5.50;99.90
17442;DHT22;8838;50.144;8.176;2023-11-18T13:53:40;5.50;99.90
17442;DHT22;8838;50.144;8.176;2023-11-18T13:56:09;5.50;99.90
17442;DHT22;8838;50.144;8.176;2023-11-18T13:58:36;5.50;99.90
17442;DHT22;8838;50.144;8.176;2023-11-18T14:01:05;5.50;99.90
17442;DHT22;8838;50.144;8.176;2023-11-18T14:03:33;5.60;99.90
17442;DHT22;8838;50.144;8.176;2023-11-18T14:05:59;5.60;99.90
17442;DHT22;8838;50.144;8.176;2023-11-18T14:08:27;5.60;99.90
17442;DHT22;8838;50.144;8.176;2023-11-18T14:10:56;5.60;99.90
17442;DHT22;8838;50.144;8.176;2023-11-18T14:13:23;5.60;99.90
17442;DHT22;8838;50.144;8.176;2023-11-18T14:15:49;5.60;99.90
17442;DHT22;8838;50.144;8.176;2023-11-18T14:18:20;5.60;99.90
17442;DHT22;8838;50.144;8.176;2023-11-18T14:20:47;5.70;99.90
17442;DHT22;8838;50.144;8.176;2023-11-18T14:23:15;5.70;99.90
17442;DHT22;8838;50.144;8.176;2023-11-18T14:25:44;5.70;99.90
17442;DHT22;8838;50.144;8.176;2023-11-18T14:28:12;5.70;99.90
17442;DHT22;8838;50.144;8.176;2023-11-18T14:30:39;5.70;99.90
17442;DHT22;8838;50.144;8.176;2023-11-18T14:33:05;5.70;99.90
17442;DHT22;8838;50.144;8.176;2023-11-18T14:35:33;5.70;99.90
17442;DHT22;8838;50.144;8.176;2023-11-18T14:38:00;5.70;99.90
17442;DHT22;8838;50.144;8.176;2023-11-18T14:40:27;5.70;99.90
17442;DHT22;8838;50.144;8.176;2023-11-18T14:42:55;5.70;99.90
17442;DHT22;8838;50.144;8.176;2023-11-18T14:45:23;5.80;99.90
17442;DHT22;8838;50.144;8.176;2023-11-18T14:47:50;5.70;99.90
17442;DHT22;8838;50.144;8.176;2023-11-18T14:50:19;5.70;99.90
17442;DHT22;8838;50.144;8.176;2023-11-18T14:52:46;5.70;99.90
17442;DHT22;8838;50.144;8.176;2023-11-18T14:55:14;5.70;99.90
17442;DHT22;8838;50.144;8.176;2023-11-18T14:57:43;5.80;99.90
17442;DHT22;8838;50.144;8.176;2023-11-18T15:00:11;5.80;99.90
17442;DHT22;8838;50.144;8.176;2023-11-18T15:02:46;5.80;99.90
17442;DHT22;8838;50.144;8.176;2023-11-18T15:05:14;5.70;99.90
17442;DHT22;8838;50.144;8.176;2023-11-18T15:07:44;5.80;99.90
17442;DHT22;8838;50.144;8.176;2023-11-18T15:10:11;5.80;99.90
17442;DHT22;8838;50.144;8.176;2023-11-18T15:12:39;5.80;99.90
17442;DHT22;8838;50.144;8.176;2023-11-18T15:15:07;5.70;99.90
17442;DHT22;8838;50.144;8.176;2023-11-18T15:17:43;5.70;99.90
17442;DHT22;8838;50.144;8.176;2023-11-18T15:20:12;5.70;99.90
17442;DHT22;8838;50.144;8.176;2023-11-18T15:22:40;5.70;99.90
17442;DHT22;8838;50.144;8.176;2023-11-18T15:25:10;5.70;99.90
17442;DHT22;8838;50.144;8.176;2023-11-18T15:27:38;5.80;99.90
17442;DHT22;8838;50.144;8.176;2023-11-18T15:30:06;5.70;99.90
17442;DHT22;8838;50.144;8.176;2023-11-18T15:32:36;5.70;99.90
17442;DHT22;8838;50.144;8.176;2023-11-18T15:35:03;5.80;99.90
17442;DHT22;8838;50.144;8.176;2023-11-18T15:37:35;5.80;99.90
17442;DHT22;8838;50.144;8.176;2023-11-18T15:40:03;5.80;99.90
17442;DHT22;8838;50.144;8.176;2023-11-18T15:42:35;5.90;99.90
17442;DHT22;8838;50.144;8.176;2023-11-18T15:45:03;5.80;99.90
17442;DHT22;8838;50.144;8.176;2023-11-18T15:47:37;5.80;99.90
17442;DHT22;8838;50.144;8.176;2023-11-18T15:50:05;5.80;99.90
17442;DHT22;8838;50.144;8.176;2023-11-18T15:52:35;5.80;99.90
17442;DHT22;8838;50.144;8.176;2023-11-18T15:55:03;5.80;99.90
17442;DHT22;8838;50.144;8.176;2023-11-18T15:57:36;5.80;99.90
17442;DHT22;8838;50.144;8.176;2023-11-18T16:00:05;5.80;99.90
17442;DHT22;8838;50.144;8.176;2023-11-18T16:02:35;5.70;99.90
17442;DHT22;8838;50.144;8.176;2023-11-18T16:05:02;5.80;99.90
17442;DHT22;8838;50.144;8.176;2023-11-18T16:07:31;5.70;99.90
17442;DHT22;8838;50.144;8.176;2023-11-18T16:10:00;5.70;99.90
17442;DHT22;8838;50.144;8.176;2023-11-18T16:12:26;5.70;99.90
17442;DHT22;8838;50.144;8.176;2023-11-18T16:14:56;5.70;99.90
17442;DHT22;8838;50.144;8.176;2023-11-18T16:17:23;5.60;99.90
17442;DHT22;8838;50.144;8.176;2023-11-18T16:19:51;5.60;99.90